createdAt,value
2023-05-19T00:02:26.147Z,6.22
2023-05-19T00:04:53.202Z,6.78
2023-05-19T00:07:23.758Z,7.10
2023-05-19T00:09:50.965Z,7.30
2023-05-19T00:12:17.811Z,9.73
2023-05-19T00:14:44.596Z,7.50
2023-05-19T00:17:11.444Z,6.15
2023-05-19T00:19:38.207Z,9.60
2023-05-19T00:22:05.285Z,6.55
2023-05-19T00:24:32.082Z,6.32
2023-05-19T00:26:58.639Z,5.38
2023-05-19T00:29:25.315Z,7.35
2023-05-19T00:31:51.896Z,4.57
2023-05-19T00:34:18.491Z,8.82
2023-05-19T00:36:45.034Z,8.20
2023-05-19T00:39:11.679Z,9.95
2023-05-19T00:41:38.277Z,5.22
2023-05-19T00:44:05.006Z,8.70
2023-05-19T00:46:31.600Z,7.20
2023-05-19T00:48:58.213Z,10.77
2023-05-19T00:54:17.254Z,9.52
2023-05-19T00:56:43.757Z,8.38
2023-05-19T00:59:10.417Z,11.23
2023-05-19T01:01:37.252Z,10.68
2023-05-19T01:04:04.563Z,8.30
2023-05-19T01:06:31.157Z,8.60
2023-05-19T01:08:58.217Z,9.88
2023-05-19T01:11:24.672Z,6.85
2023-05-19T01:13:51.521Z,10.23
2023-05-19T01:16:48.803Z,8.20
2023-05-19T01:19:25.505Z,8.75
2023-05-19T01:22:22.812Z,8.55
2023-05-19T01:25:04.585Z,5.55
2023-05-19T01:27:49.860Z,8.23
2023-05-19T01:30:38.149Z,6.32
2023-05-19T01:33:08.665Z,7.13
2023-05-19T01:35:37.640Z,11.57
2023-05-19T01:38:07.853Z,10.63
2023-05-19T01:40:35.727Z,8.13
2023-05-19T01:43:02.886Z,9.65
2023-05-19T01:45:31.871Z,8.38
2023-05-19T01:48:03.046Z,6.10
2023-05-19T01:50:30.723Z,7.68
2023-05-19T01:52:57.603Z,8.93
2023-05-19T01:55:24.340Z,4.68
2023-05-19T01:58:22.726Z,7.93
2023-05-19T02:00:56.625Z,6.43
2023-05-19T02:03:26.322Z,6.38
2023-05-19T02:06:01.777Z,8.00
2023-05-19T02:08:41.457Z,7.78
2023-05-19T02:11:16.568Z,8.48
2023-05-19T02:13:44.687Z,9.00
2023-05-19T02:16:13.491Z,10.10
2023-05-19T02:18:40.542Z,7.82
2023-05-19T02:21:07.245Z,8.95
2023-05-19T02:23:33.742Z,11.70
2023-05-19T02:26:01.122Z,10.25
2023-05-19T02:28:28.419Z,9.80
2023-05-19T02:30:55.125Z,7.65
2023-05-19T02:33:24.660Z,7.25
2023-05-19T02:35:51.279Z,11.68
2023-05-19T02:38:18.192Z,9.32
2023-05-19T02:40:44.675Z,9.68
2023-05-19T02:43:11.188Z,7.47
2023-05-19T02:45:37.710Z,9.18
2023-05-19T02:48:04.693Z,9.10
2023-05-19T02:50:31.363Z,8.50
2023-05-19T02:52:58.123Z,10.88
2023-05-19T02:55:24.553Z,12.63
2023-05-19T02:57:51.347Z,10.95
2023-05-19T03:00:17.938Z,8.10
2023-05-19T03:02:44.521Z,10.07
2023-05-19T03:05:11.397Z,12.02
2023-05-19T03:07:37.880Z,9.18
2023-05-19T03:10:06.492Z,8.93
2023-05-19T03:12:33.621Z,12.80
2023-05-19T03:15:01.057Z,7.55
2023-05-19T03:17:28.631Z,9.25
2023-05-19T03:19:55.731Z,8.02
2023-05-19T03:22:22.299Z,9.38
2023-05-19T03:24:51.139Z,6.90
2023-05-19T03:27:17.812Z,7.97
2023-05-19T03:29:44.273Z,12.43
2023-05-19T03:32:10.883Z,9.45
2023-05-19T03:34:37.509Z,9.95
2023-05-19T03:37:04.153Z,8.85
2023-05-19T03:39:30.934Z,10.10
2023-05-19T03:41:57.501Z,10.45
2023-05-19T03:44:24.181Z,10.95
2023-05-19T03:46:50.791Z,9.55
2023-05-19T03:49:18.584Z,6.35
2023-05-19T03:51:45.038Z,6.00
2023-05-19T03:54:11.520Z,9.27
2023-05-19T03:56:40.071Z,7.55
2023-05-19T03:59:07.275Z,9.13
2023-05-19T04:01:33.865Z,10.13
2023-05-19T04:04:00.404Z,10.10
2023-05-19T04:06:27.026Z,9.00
2023-05-19T04:08:53.510Z,7.93
2023-05-19T04:11:20.297Z,10.18
2023-05-19T04:13:46.861Z,6.93
2023-05-19T04:16:13.924Z,7.10
2023-05-19T04:18:40.577Z,6.13
2023-05-19T04:21:08.716Z,13.35
2023-05-19T04:23:35.166Z,8.10
2023-05-19T04:26:02.425Z,7.63
2023-05-19T04:28:29.939Z,9.38
2023-05-19T04:30:58.711Z,9.68
2023-05-19T04:33:25.386Z,11.10
2023-05-19T04:35:51.938Z,6.57
2023-05-19T04:38:19.983Z,7.40
2023-05-19T04:40:46.475Z,11.20
2023-05-19T04:43:13.066Z,7.85
2023-05-19T04:45:42.493Z,11.35
2023-05-19T04:48:09.163Z,7.30
2023-05-19T04:50:38.537Z,9.75
2023-05-19T04:53:05.054Z,7.43
2023-05-19T04:55:32.827Z,8.27
2023-05-19T04:57:59.291Z,8.98
2023-05-19T05:00:25.970Z,7.53
2023-05-19T05:02:52.502Z,7.32
2023-05-19T05:05:19.037Z,8.68
2023-05-19T05:07:45.965Z,7.70
2023-05-19T05:10:12.493Z,12.02
2023-05-19T05:12:39.234Z,8.43
2023-05-19T05:15:07.039Z,9.77
2023-05-19T05:17:35.487Z,7.00
2023-05-19T05:20:04.697Z,8.25
2023-05-19T05:22:31.474Z,9.00
2023-05-19T05:24:58.263Z,8.38
2023-05-19T05:27:24.818Z,8.38
2023-05-19T05:29:52.629Z,10.18
2023-05-19T05:32:19.187Z,8.90
2023-05-19T05:34:45.932Z,11.75
2023-05-19T05:37:14.603Z,7.18
2023-05-19T05:39:41.790Z,8.73
2023-05-19T05:42:11.318Z,8.73
2023-05-19T05:44:37.777Z,7.38
2023-05-19T05:47:04.837Z,10.38
2023-05-19T05:49:31.677Z,9.10
2023-05-19T05:52:05.729Z,8.10
2023-05-19T05:54:33.332Z,10.55
2023-05-19T05:57:00.074Z,8.45
2023-05-19T05:59:26.640Z,9.00
2023-05-19T06:01:53.111Z,11.48
2023-05-19T06:04:21.037Z,8.70
2023-05-19T06:06:47.754Z,9.10
2023-05-19T06:09:14.286Z,9.07
2023-05-19T06:11:40.993Z,6.78
2023-05-19T06:14:07.474Z,8.07
2023-05-19T06:16:34.100Z,11.05
2023-05-19T06:19:00.635Z,13.13
2023-05-19T06:21:27.201Z,6.50
2023-05-19T06:23:54.227Z,9.30
2023-05-19T06:26:20.932Z,10.50
2023-05-19T06:28:47.390Z,8.00
2023-05-19T06:31:13.916Z,7.40
2023-05-19T06:33:41.960Z,6.20
2023-05-19T06:36:10.059Z,10.95
2023-05-19T06:38:36.611Z,8.98
2023-05-19T06:41:03.092Z,7.90
2023-05-19T06:43:30.305Z,8.73
2023-05-19T06:45:57.017Z,12.30
2023-05-19T06:48:23.568Z,8.32
2023-05-19T06:50:51.050Z,12.35
2023-05-19T06:53:19.809Z,6.22
2023-05-19T06:55:58.139Z,9.02
2023-05-19T06:58:26.812Z,8.82
2023-05-19T07:00:53.809Z,7.68
2023-05-19T07:03:20.691Z,9.18
2023-05-19T07:05:47.582Z,8.68
2023-05-19T07:08:14.052Z,8.98
2023-05-19T07:10:40.541Z,6.47
2023-05-19T07:13:07.111Z,8.18
2023-05-19T07:15:33.854Z,10.32
2023-05-19T07:18:00.600Z,7.63
2023-05-19T07:20:27.203Z,9.63
2023-05-19T07:22:53.805Z,8.88
2023-05-19T07:25:20.652Z,9.43
2023-05-19T07:27:47.490Z,13.05
2023-05-19T07:30:14.067Z,10.18
2023-05-19T07:32:40.815Z,8.48
2023-05-19T07:35:07.700Z,9.18
2023-05-19T07:37:34.368Z,9.07
2023-05-19T07:40:01.025Z,8.02
2023-05-19T07:42:27.554Z,8.93
2023-05-19T07:44:54.109Z,6.25
2023-05-19T07:47:20.793Z,6.80
2023-05-19T07:49:49.096Z,9.20
2023-05-19T07:52:18.317Z,6.97
2023-05-19T07:54:46.131Z,8.57
2023-05-19T07:57:12.672Z,9.45
2023-05-19T07:59:39.143Z,9.60
2023-05-19T08:02:06.406Z,6.43
2023-05-19T08:04:33.090Z,12.38
2023-05-19T08:06:59.843Z,7.13
2023-05-19T08:09:26.643Z,7.55
2023-05-19T08:11:53.477Z,5.55
2023-05-19T08:14:22.711Z,7.35
2023-05-19T08:16:50.122Z,5.55
2023-05-19T08:19:16.774Z,11.02
2023-05-19T08:21:45.163Z,6.40
2023-05-19T08:24:11.899Z,11.40
2023-05-19T08:26:38.443Z,7.15
2023-05-19T08:29:05.512Z,7.13
2023-05-19T08:31:32.578Z,12.75
2023-05-19T08:33:59.296Z,8.20
2023-05-19T08:36:25.963Z,9.20
2023-05-19T08:38:52.525Z,10.13
2023-05-19T08:41:19.312Z,8.43
2023-05-19T08:43:45.960Z,7.05
2023-05-19T08:46:15.051Z,6.47
2023-05-19T08:48:43.105Z,7.03
2023-05-19T08:51:33.633Z,5.68
2023-05-19T08:54:14.599Z,7.28
2023-05-19T08:56:43.340Z,9.25
2023-05-19T08:59:10.577Z,5.63
2023-05-19T09:04:10.182Z,8.20
2023-05-19T09:06:36.821Z,6.38
2023-05-19T09:09:04.234Z,5.97
2023-05-19T09:11:30.906Z,6.28
2023-05-19T09:13:57.445Z,9.68
2023-05-19T09:16:25.508Z,9.43
2023-05-19T09:18:57.558Z,6.32
2023-05-19T09:21:31.175Z,4.60
2023-05-19T09:24:06.335Z,7.03
2023-05-19T09:26:40.654Z,5.47
2023-05-19T09:29:17.897Z,5.78
2023-05-19T09:32:00.518Z,5.88
2023-05-19T09:34:27.736Z,6.60
2023-05-19T09:36:54.489Z,9.20
2023-05-19T09:39:22.957Z,4.57
2023-05-19T09:41:54.287Z,5.82
2023-05-19T09:44:21.270Z,4.22
2023-05-19T09:46:52.863Z,7.15
2023-05-19T09:49:24.655Z,5.88
2023-05-19T09:51:59.063Z,4.60
2023-05-19T09:54:28.454Z,4.68
2023-05-19T09:57:07.865Z,6.75
2023-05-19T09:59:35.789Z,7.80
2023-05-19T10:02:02.932Z,7.05
2023-05-19T10:04:30.998Z,6.90
2023-05-19T10:07:05.536Z,5.45
2023-05-19T10:09:34.035Z,4.88
2023-05-19T10:12:01.042Z,7.57
2023-05-19T10:14:29.645Z,5.07
2023-05-19T10:16:58.566Z,4.80
2023-05-19T10:19:27.279Z,7.32
2023-05-19T10:21:54.620Z,5.10
2023-05-19T10:24:21.742Z,4.88
2023-05-19T10:26:55.212Z,5.18
2023-05-19T10:29:34.901Z,5.32
2023-05-19T10:32:08.193Z,5.63
2023-05-19T10:34:57.147Z,4.28
2023-05-19T10:37:50.575Z,4.32
2023-05-19T10:43:20.321Z,4.18
2023-05-19T10:45:54.348Z,4.82
2023-05-19T10:48:22.574Z,2.97
2023-05-19T10:50:52.919Z,4.03
2023-05-19T10:53:22.476Z,5.20
2023-05-19T10:55:56.314Z,3.45
2023-05-19T10:58:45.381Z,2.85
2023-05-19T11:01:16.943Z,3.92
2023-05-19T11:03:54.294Z,2.70
2023-05-19T11:06:29.601Z,3.42
2023-05-19T11:09:16.543Z,3.55
2023-05-19T11:11:48.377Z,3.20
2023-05-19T11:14:21.492Z,4.70
2023-05-19T11:16:49.732Z,3.80
2023-05-19T11:19:28.499Z,4.35
2023-05-19T11:21:56.451Z,3.97
2023-05-19T11:24:44.763Z,4.03
2023-05-19T11:27:38.522Z,3.67
2023-05-19T11:30:14.810Z,6.13
2023-05-19T11:32:42.852Z,4.05
2023-05-19T11:35:10.224Z,3.92
2023-05-19T11:37:37.178Z,5.93
2023-05-19T11:40:06.991Z,3.42
2023-05-19T11:42:34.909Z,3.78
2023-05-19T11:45:01.830Z,3.05
2023-05-19T11:47:28.556Z,5.13
2023-05-19T11:49:56.785Z,3.15
2023-05-19T11:52:29.483Z,8.15
2023-05-19T11:57:23.431Z,4.13
2023-05-19T11:59:52.285Z,4.80
2023-05-19T12:02:21.421Z,3.85
2023-05-19T12:04:49.440Z,3.80
2023-05-19T12:07:19.975Z,2.67
2023-05-19T12:09:47.339Z,4.20
2023-05-19T12:12:19.118Z,5.57
2023-05-19T12:14:52.827Z,2.88
2023-05-19T12:17:20.948Z,4.55
2023-05-19T12:19:48.983Z,4.85
2023-05-19T12:22:17.228Z,2.90
2023-05-19T12:24:45.135Z,4.32
2023-05-19T12:27:23.153Z,5.80
2023-05-19T12:29:54.156Z,4.18
2023-05-19T12:32:28.880Z,5.70
2023-05-19T12:34:58.827Z,2.65
2023-05-19T12:37:30.158Z,3.85
2023-05-19T12:39:57.647Z,3.45
2023-05-19T12:42:31.234Z,3.25
2023-05-19T12:45:00.881Z,5.60
2023-05-19T12:47:34.888Z,4.03
2023-05-19T12:50:05.412Z,4.93
2023-05-19T12:52:35.513Z,3.17
2023-05-19T12:55:11.196Z,4.28
2023-05-19T12:57:39.160Z,3.67
2023-05-19T13:00:13.854Z,2.53
2023-05-19T13:03:04.839Z,1.90
2023-05-19T13:05:33.802Z,6.38
2023-05-19T13:08:04.931Z,3.55
2023-05-19T13:10:32.158Z,4.05
2023-05-19T13:13:00.320Z,3.10
2023-05-19T13:15:31.686Z,5.57
2023-05-19T13:17:58.674Z,1.67
2023-05-19T13:20:27.648Z,2.80
2023-05-19T13:22:55.967Z,2.85
2023-05-19T13:25:22.703Z,3.00
2023-05-19T13:27:49.632Z,2.53
2023-05-19T13:30:16.418Z,2.28
2023-05-19T13:32:43.010Z,2.47
2023-05-19T13:35:10.391Z,3.25
2023-05-19T13:37:36.945Z,3.00
2023-05-19T13:40:03.707Z,1.90
2023-05-19T13:42:31.787Z,2.15
2023-05-19T13:44:58.341Z,2.60
2023-05-19T13:47:24.982Z,1.02
2023-05-19T13:49:51.968Z,4.40
2023-05-19T13:52:20.618Z,3.15
2023-05-19T13:54:48.469Z,2.65
2023-05-19T13:57:15.893Z,2.13
2023-05-19T13:59:57.762Z,4.15
2023-05-19T14:02:27.380Z,3.28
2023-05-19T14:04:54.307Z,1.63
2023-05-19T14:07:21.156Z,3.90
2023-05-19T14:09:47.771Z,5.25
2023-05-19T14:12:14.378Z,3.97
2023-05-19T14:14:40.943Z,3.65
2023-05-19T14:17:07.483Z,1.77
2023-05-19T14:19:34.007Z,2.10
2023-05-19T14:22:00.466Z,3.40
2023-05-19T14:24:26.979Z,1.73
2023-05-19T14:26:53.803Z,3.50
2023-05-19T14:29:20.307Z,4.35
2023-05-19T14:31:46.980Z,4.45
2023-05-19T14:34:17.765Z,2.97
2023-05-19T14:36:44.652Z,1.30
2023-05-19T14:39:11.888Z,2.90
2023-05-19T14:41:38.444Z,4.72
2023-05-19T14:44:05.558Z,1.98
2023-05-19T14:46:32.577Z,2.83
2023-05-19T14:48:59.072Z,4.10
2023-05-19T14:51:25.746Z,3.70
2023-05-19T14:53:52.292Z,2.25
2023-05-19T14:56:18.728Z,1.95
2023-05-19T14:58:45.206Z,2.85
2023-05-19T15:01:11.840Z,3.88
2023-05-19T15:03:38.410Z,2.17
2023-05-19T15:06:09.336Z,2.22
2023-05-19T15:08:37.689Z,3.45
2023-05-19T15:11:04.678Z,3.95
2023-05-19T15:13:31.309Z,2.53
2023-05-19T15:16:12.428Z,3.20
2023-05-19T15:18:41.956Z,2.67
2023-05-19T15:21:08.484Z,2.15
2023-05-19T15:23:34.956Z,1.38
2023-05-19T15:26:01.488Z,2.30
2023-05-19T15:28:28.017Z,3.03
2023-05-19T15:30:54.561Z,1.65
2023-05-19T15:33:21.228Z,2.20
2023-05-19T15:35:51.522Z,2.20
2023-05-19T15:38:19.503Z,2.60
2023-05-19T15:40:46.726Z,2.45
2023-05-19T15:43:13.560Z,1.10
2023-05-19T15:45:40.800Z,1.65
2023-05-19T15:48:07.571Z,2.55
2023-05-19T15:50:34.404Z,3.28
2023-05-19T15:53:01.054Z,1.48
2023-05-19T15:55:27.608Z,2.10
2023-05-19T15:57:54.177Z,3.38
2023-05-19T16:00:20.814Z,2.85
2023-05-19T16:02:47.397Z,1.88
2023-05-19T16:05:13.962Z,2.25
2023-05-19T16:07:42.084Z,2.00
2023-05-19T16:10:09.074Z,2.45
2023-05-19T16:12:36.715Z,4.50
2023-05-19T16:15:03.806Z,3.63
2023-05-19T16:17:30.653Z,2.70
2023-05-19T16:19:57.259Z,2.58
2023-05-19T16:22:24.892Z,2.47
2023-05-19T16:24:52.297Z,3.78
2023-05-19T16:27:19.176Z,1.83
2023-05-19T16:29:45.889Z,1.55
2023-05-19T16:32:12.790Z,2.25
2023-05-19T16:34:39.542Z,2.80
2023-05-19T16:37:06.097Z,6.32
2023-05-19T16:39:32.685Z,2.03
2023-05-19T16:41:59.197Z,3.13
2023-05-19T16:44:26.078Z,2.78
2023-05-19T16:46:52.591Z,2.63
2023-05-19T16:49:19.124Z,4.10
2023-05-19T16:51:46.823Z,2.90
2023-05-19T16:54:14.719Z,1.80
2023-05-19T16:56:41.263Z,3.00
2023-05-19T16:59:09.555Z,3.72
2023-05-19T17:01:36.134Z,3.28
2023-05-19T17:04:02.764Z,3.10
2023-05-19T17:06:29.859Z,3.05
2023-05-19T17:08:56.459Z,2.40
2023-05-19T17:11:22.929Z,1.60
2023-05-19T17:13:49.427Z,1.90
2023-05-19T17:16:16.053Z,2.80
2023-05-19T17:18:43.668Z,7.55
2023-05-19T17:21:10.611Z,4.20
2023-05-19T17:23:37.846Z,2.33
2023-05-19T17:26:04.557Z,2.30
2023-05-19T17:28:31.090Z,5.90
2023-05-19T17:30:57.755Z,3.53
2023-05-19T17:33:24.425Z,3.17
2023-05-19T17:35:51.038Z,4.28
2023-05-19T17:38:17.648Z,3.55
2023-05-19T17:40:44.421Z,3.47
2023-05-19T17:43:11.167Z,4.70
2023-05-19T17:45:37.661Z,3.00
2023-05-19T17:48:04.836Z,4.55
2023-05-19T17:50:31.540Z,1.98
2023-05-19T17:52:58.564Z,2.63
2023-05-19T17:55:29.736Z,3.88
2023-05-19T17:57:57.359Z,2.55
2023-05-19T18:00:25.174Z,5.25
2023-05-19T18:02:52.254Z,3.30
2023-05-19T18:05:19.335Z,1.63
2023-05-19T18:07:46.160Z,2.50
2023-05-19T18:10:16.187Z,3.90
2023-05-19T18:12:42.664Z,2.75
2023-05-19T18:15:09.521Z,1.88
2023-05-19T18:17:36.111Z,2.78
2023-05-19T18:20:02.782Z,2.63
2023-05-19T18:22:29.337Z,2.83
2023-05-19T18:24:57.636Z,2.75
2023-05-19T18:27:24.185Z,1.50
2023-05-19T18:29:50.683Z,2.55
2023-05-19T18:32:17.745Z,1.90
2023-05-19T18:34:44.341Z,1.67
2023-05-19T18:37:10.855Z,4.40
2023-05-19T18:39:37.509Z,3.85
2023-05-19T18:42:04.376Z,2.78
2023-05-19T18:44:31.120Z,2.95
2023-05-19T18:46:57.711Z,4.10
2023-05-19T18:49:25.107Z,1.83
2023-05-19T18:51:52.027Z,3.60
2023-05-19T18:56:48.090Z,2.88
2023-05-19T18:59:14.700Z,3.15
2023-05-19T19:01:41.427Z,3.78
2023-05-19T19:04:08.309Z,4.38
2023-05-19T19:06:34.961Z,2.97
2023-05-19T19:09:01.499Z,2.30
2023-05-19T19:11:28.092Z,2.47
2023-05-19T19:13:56.573Z,1.63
2023-05-19T19:16:23.305Z,3.78
2023-05-19T19:18:50.119Z,2.90
2023-05-19T19:21:19.251Z,1.40
2023-05-19T19:23:45.880Z,1.98
2023-05-19T19:26:12.402Z,4.00
2023-05-19T19:28:38.957Z,3.00
2023-05-19T19:31:05.545Z,5.82
2023-05-19T19:33:32.156Z,3.58
2023-05-19T19:35:58.718Z,11.55
2023-05-19T19:38:25.180Z,4.03
2023-05-19T19:40:52.485Z,4.80
2023-05-19T19:43:19.258Z,2.28
2023-05-19T19:45:45.747Z,3.45
2023-05-19T19:48:12.499Z,2.47
2023-05-19T19:50:41.899Z,1.55
2023-05-19T19:53:08.866Z,3.55
2023-05-19T19:55:35.555Z,2.40
2023-05-19T19:58:02.122Z,1.95
2023-05-19T20:00:28.621Z,4.40
2023-05-19T20:03:05.061Z,5.30
2023-05-19T20:05:32.396Z,5.38
2023-05-19T20:07:59.038Z,2.78
2023-05-19T20:10:25.554Z,1.63
2023-05-19T20:12:52.354Z,5.05
2023-05-19T20:15:18.956Z,2.65
2023-05-19T20:17:45.770Z,2.35
2023-05-19T20:20:12.840Z,2.83
2023-05-19T20:22:39.704Z,6.25
2023-05-19T20:25:06.613Z,2.65
2023-05-19T20:27:33.178Z,2.25
2023-05-19T20:29:59.791Z,4.63
2023-05-19T20:32:26.401Z,2.03
2023-05-19T20:34:53.010Z,2.80
2023-05-19T20:37:20.973Z,3.67
2023-05-19T20:39:47.818Z,2.53
2023-05-19T20:42:14.336Z,3.90
2023-05-19T20:44:41.028Z,4.32
2023-05-19T20:47:08.243Z,1.95
2023-05-19T20:49:35.041Z,8.73
2023-05-19T20:52:01.640Z,3.88
2023-05-19T20:54:28.240Z,6.25
2023-05-19T20:56:54.801Z,2.97
2023-05-19T20:59:21.421Z,4.60
2023-05-19T21:01:48.064Z,4.05
2023-05-19T21:04:14.777Z,3.08
2023-05-19T21:06:41.337Z,3.65
2023-05-19T21:09:07.974Z,2.80
2023-05-19T21:11:34.570Z,2.70
2023-05-19T21:14:03.893Z,2.72
2023-05-19T21:16:31.205Z,5.00
2023-05-19T21:18:57.882Z,3.15
2023-05-19T21:21:24.572Z,2.67
2023-05-19T21:23:51.086Z,4.18
2023-05-19T21:26:17.979Z,4.47
2023-05-19T21:28:44.546Z,2.65
2023-05-19T21:31:11.316Z,3.88
2023-05-19T21:33:37.887Z,2.67
2023-05-19T21:36:04.732Z,3.97
2023-05-19T21:38:31.371Z,4.80
2023-05-19T21:40:58.015Z,3.08
2023-05-19T21:43:24.578Z,4.15
2023-05-19T21:45:51.102Z,5.15
2023-05-19T21:48:17.881Z,1.85
2023-05-19T21:50:44.572Z,5.35
2023-05-19T21:53:11.086Z,3.35
2023-05-19T21:55:37.740Z,3.58
2023-05-19T21:58:04.345Z,3.00
2023-05-19T22:00:30.916Z,3.20
2023-05-19T22:02:57.520Z,4.63
2023-05-19T22:05:24.099Z,3.60
2023-05-19T22:07:50.668Z,4.63
2023-05-19T22:10:17.409Z,2.97
2023-05-19T22:12:43.926Z,3.67
2023-05-19T22:15:11.421Z,4.40
2023-05-19T22:17:37.925Z,4.15
2023-05-19T22:20:05.382Z,6.93
2023-05-19T22:22:31.852Z,5.20
2023-05-19T22:24:58.613Z,3.15
2023-05-19T22:27:25.146Z,5.55
2023-05-19T22:29:51.624Z,2.42
2023-05-19T22:32:19.478Z,7.93
2023-05-19T22:34:46.320Z,8.25
2023-05-19T22:37:13.036Z,5.85
2023-05-19T22:39:39.607Z,3.30
2023-05-19T22:42:06.187Z,3.75
2023-05-19T22:44:32.690Z,4.30
2023-05-19T22:46:59.212Z,4.65
2023-05-19T22:49:27.357Z,3.83
2023-05-19T22:51:53.918Z,2.92
2023-05-19T22:54:20.503Z,4.57
2023-05-19T22:56:49.050Z,7.97
2023-05-19T22:59:17.933Z,6.47
2023-05-19T23:01:46.477Z,5.05
2023-05-19T23:04:13.964Z,7.38
2023-05-19T23:06:40.783Z,2.28
2023-05-19T23:09:07.699Z,5.72
2023-05-19T23:11:35.852Z,4.88
2023-05-19T23:14:02.577Z,7.32
2023-05-19T23:16:29.185Z,4.53
2023-05-19T23:18:55.866Z,3.40
2023-05-19T23:21:22.474Z,5.18
2023-05-19T23:23:49.767Z,7.78
2023-05-19T23:26:16.469Z,5.93
2023-05-19T23:28:43.284Z,5.45
2023-05-19T23:31:10.169Z,4.00
2023-05-19T23:33:36.807Z,3.13
2023-05-19T23:36:08.284Z,5.55
2023-05-19T23:38:38.071Z,4.65
2023-05-19T23:41:05.170Z,4.80
2023-05-19T23:43:34.799Z,5.13
2023-05-19T23:46:01.576Z,7.25
2023-05-19T23:48:29.333Z,3.95
2023-05-19T23:50:56.919Z,2.83
2023-05-19T23:53:23.787Z,9.20
2023-05-19T23:55:51.381Z,4.40
2023-05-19T23:58:18.153Z,3.45
